Time,TemperatureF,DewpointF,PressureIn,WindDirection,WindDirectionDegrees,WindSpeedMPH,WindSpeedGustMPH,Humidity,HourlyPrecipIn,Conditions,Clouds,dailyrainin,SoftwareType,DateUTC
2015-01-30 00:22:00,35.0,28.0,-100.00,NE,55,7.0,12.0,75,0.00,,,-99.99,,2015-01-30 05:22:00,
2015-01-30 00:53:00,35.0,27.0,-100.00,NNE,25,9.0,16.0,72,0.00,,,-99.99,,2015-01-30 05:53:00,
2015-01-30 01:22:00,35.0,26.0,-100.00,NE,50,6.0,16.0,69,0.00,,,-99.99,,2015-01-30 06:22:00,
2015-01-30 01:52:00,36.0,26.0,-100.00,NE,50,8.0,15.0,66,0.00,,,-99.99,,2015-01-30 06:52:00,
2015-01-30 02:22:00,35.0,26.0,-100.00,NE,35,4.0,11.0,67,0.00,,,-99.99,,2015-01-30 07:22:00,
2015-01-30 02:52:00,36.0,26.0,-100.00,NE,50,6.0,11.0,66,0.00,,,-99.99,,2015-01-30 07:52:00,
2015-01-30 03:02:00,36.0,26.0,-100.00,NE,50,6.0,11.0,66,0.00,,,-99.99,,2015-01-30 08:02:00,
2015-01-30 03:22:00,35.0,26.0,-100.00,NE,35,6.0,12.0,66,0.00,,,-99.99,,2015-01-30 08:22:00,
2015-01-30 03:42:00,36.0,25.0,-100.00,NE,50,11.0,19.0,66,0.00,,,-99.99,,2015-01-30 08:42:00,
2015-01-30 03:52:00,36.0,24.0,-100.00,NNE,25,9.0,18.0,62,0.00,,,-99.99,,2015-01-30 08:52:00,
2015-01-30 04:03:00,36.0,24.0,-100.00,NNE,25,9.0,18.0,62,0.00,,,-99.99,,2015-01-30 09:03:00,
2015-01-30 04:22:00,35.0,24.0,-100.00,NE,40,6.0,15.0,63,0.00,,,-99.99,,2015-01-30 09:22:00,
2015-01-30 04:53:00,35.0,24.0,-100.00,NE,40,10.0,16.0,63,0.00,,,-99.99,,2015-01-30 09:53:00,
2015-01-30 05:23:00,35.0,24.0,-100.00,NE,55,6.0,14.0,64,0.00,,,-99.99,,2015-01-30 10:23:00,
2015-01-30 05:54:00,35.0,24.0,-100.00,ENE,65,6.0,16.0,64,0.00,,,-99.99,,2015-01-30 10:54:00,
2015-01-30 06:23:00,35.0,24.0,-100.00,NE,40,12.0,17.0,64,0.00,,,-99.99,,2015-01-30 11:23:00,
2015-01-30 06:53:00,31.0,26.0,-100.00,East,100,7.0,18.0,79,2.83,,,-99.99,,2015-01-30 11:53:00,
2015-01-30 07:22:00,31.0,22.0,-100.00,East,85,12.0,17.0,68,0.00,,,-99.99,,2015-01-30 12:22:00,
2015-01-30 07:52:00,31.0,20.0,-100.00,ENE,75,10.0,16.0,63,0.00,,,-99.99,,2015-01-30 12:52:00,
2015-01-30 08:22:00,31.0,19.0,-100.00,ENE,75,11.0,16.0,60,0.00,,,-99.99,,2015-01-30 13:22:00,
2015-01-30 08:52:00,30.0,18.0,-100.00,East,80,6.0,14.0,60,0.00,,,-99.99,,2015-01-30 13:52:00,
2015-01-30 09:22:00,29.0,13.0,-100.00,ENE,75,10.0,24.0,50,0.00,,,-99.99,,2015-01-30 14:22:00,
2015-01-30 09:52:00,29.0,11.0,-100.00,East,85,12.0,21.0,47,0.00,,,-99.99,,2015-01-30 14:52:00,
2015-01-30 10:23:00,29.0,12.0,-100.00,East,90,11.0,27.0,48,0.00,,,-99.99,,2015-01-30 15:23:00,
2015-01-30 10:53:00,28.0,15.0,-100.00,East,90,7.0,16.0,57,0.00,,,-99.99,,2015-01-30 15:53:00,
2015-01-30 11:24:00,28.0,14.0,-100.00,East,80,14.0,19.0,54,0.00,,,-99.99,,2015-01-30 16:24:00,